Time;durP1;ratioP1;P1;durP2;ratioP2;P2;SDS_P1;SDS_P2;PMS_P1;PMS_P2;Temp;Humidity;BMP_temperature;BMP_pressure;BME280_temperature;BME280_humidity;BME280_pressure;Samples;Min_cycle;Max_cycle;Signal;HPM_P1;HPM_P2
2023/09/20 00:00:32;;;;;;;;;;;;;;;22.62;52.72;100587.78;4912123;29;6314;-72
2023/09/20 00:02:59;;;;;;;;;;;;;;;22.61;52.98;100581.25;4915977;29;2481;-72
2023/09/20 00:05:26;;;;;;;;;;;;;;;22.62;52.97;100587.78;4914967;29;2116;-72
2023/09/20 00:07:56;;;;;;;;;;;;;;;22.62;52.91;100584.88;4913442;29;2207;-72
2023/09/20 00:10:22;;;;;;;;;;;;;;;22.62;53.10;100584.88;4916138;29;2280;-72
2023/09/20 00:12:49;;;;;;;;;;;;;;;22.61;53.13;100589.94;4911699;29;2690;-72
2023/09/20 00:15:15;;;;;;;;;;;;;;;22.61;52.99;100583.41;4913676;29;2205;-73
2023/09/20 00:17:42;;;;;;;;;;;;;;;22.61;52.77;100589.16;4913444;29;2166;-72
2023/09/20 00:20:14;;;;;;;;;;;;;;;22.61;52.90;100589.94;4912437;29;2238;-72
2023/09/20 00:22:41;;;;;;;;;;;;;;;22.62;53.00;100584.88;4910395;29;2443;-73
2023/09/20 00:25:11;;;;;;;;;;;;;;;22.61;52.76;100587.03;4912852;29;2303;-71
2023/09/20 00:27:38;;;;;;;;;;;;;;;22.61;53.02;100587.03;4915704;29;2222;-72
2023/09/20 00:30:09;;;;;;;;;;;;;;;22.59;52.75;100584.81;4916012;29;6355;-72
2023/09/20 00:32:37;;;;;;;;;;;;;;;22.61;52.70;100589.16;4914522;29;2256;-72
2023/09/20 00:35:03;;;;;;;;;;;;;;;22.60;52.81;100591.31;4913387;29;2317;-71
2023/09/20 00:37:30;;;;;;;;;;;;;;;22.59;52.65;100593.47;4898914;29;2365;-72
2023/09/20 00:39:56;;;;;;;;;;;;;;;22.61;52.75;100592.06;4911547;29;2222;-73
2023/09/20 00:42:22;;;;;;;;;;;;;;;22.58;52.85;100591.97;4913058;29;2451;-72
2023/09/20 00:44:49;;;;;;;;;;;;;;;22.61;52.98;100592.06;4916018;29;1979;-72
2023/09/20 00:47:16;;;;;;;;;;;;;;;22.59;53.00;100593.47;4915620;29;2158;-72
2023/09/20 00:49:45;;;;;;;;;;;;;;;22.59;53.10;100590.59;4900158;29;2203;-72
2023/09/20 00:52:13;;;;;;;;;;;;;;;22.58;52.93;100586.22;4913585;29;2555;-73
2023/09/20 00:54:40;;;;;;;;;;;;;;;22.59;52.60;100593.47;4915128;29;2269;-72
2023/09/20 00:57:07;;;;;;;;;;;;;;;22.58;52.36;100586.22;4914782;29;2372;-71
2023/09/20 00:59:33;;;;;;;;;;;;;;;22.58;52.64;100591.97;4916487;29;2357;-73
2023/09/20 01:02:00;;;;;;;;;;;;;;;22.59;52.58;100593.47;4909372;29;6563;-72
2023/09/20 01:04:28;;;;;;;;;;;;;;;22.59;52.91;100593.47;4898072;29;2455;-73
2023/09/20 01:06:54;;;;;;;;;;;;;;;22.59;53.06;100598.50;4916680;29;2456;-72
2023/09/20 01:09:24;;;;;;;;;;;;;;;22.58;53.16;100597.75;4917531;29;2194;-64
2023/09/20 01:11:51;;;;;;;;;;;;;;;22.58;53.06;100599.91;4915833;29;2273;-67
2023/09/20 01:14:19;;;;;;;;;;;;;;;22.58;53.01;100602.78;4916823;29;2501;-70
2023/09/20 01:16:46;;;;;;;;;;;;;;;22.58;52.99;100600.63;4914062;29;2601;-70
2023/09/20 01:19:12;;;;;;;;;;;;;;;22.57;52.82;100596.28;4917288;29;2230;-70
2023/09/20 01:21:39;;;;;;;;;;;;;;;22.58;52.85;100602.78;4917433;29;2179;-70
2023/09/20 01:24:06;;;;;;;;;;;;;;;22.57;53.12;100607.84;4914756;29;2438;-70
2023/09/20 01:26:33;;;;;;;;;;;;;;;22.57;53.09;100599.19;4916241;29;2498;-70
2023/09/20 01:29:00;;;;;;;;;;;;;;;22.57;53.05;100602.06;4911609;29;2278;-70
2023/09/20 01:31:26;;;;;;;;;;;;;;;22.57;53.18;100602.06;4913243;29;6233;-70
2023/09/20 01:33:54;;;;;;;;;;;;;;;22.56;53.30;100597.72;4910868;29;2809;-70
2023/09/20 01:36:22;;;;;;;;;;;;;;;22.56;52.96;100591.19;4916724;29;2447;-70
2023/09/20 01:38:48;;;;;;;;;;;;;;;22.54;53.01;100588.97;4916357;29;2477;-70
2023/09/20 01:41:15;;;;;;;;;;;;;;;22.55;53.02;100593.34;4914302;29;2369;-70
2023/09/20 01:43:43;;;;;;;;;;;;;;;22.56;53.11;100585.41;4918193;29;2172;-70
2023/09/20 01:46:10;;;;;;;;;;;;;;;22.56;53.00;100591.19;4915195;29;2553;-71
2023/09/20 01:48:36;;;;;;;;;;;;;;;22.56;53.30;100585.41;4915426;29;2291;-70
2023/09/20 01:51:03;;;;;;;;;;;;;;;22.54;53.45;100586.09;4918095;29;2260;-71
2023/09/20 01:53:30;;;;;;;;;;;;;;;22.53;53.40;100584.59;4916598;29;2215;-70
2023/09/20 01:56:00;;;;;;;;;;;;;;;22.54;53.43;100586.09;4915822;29;2733;-71
2023/09/20 01:58:28;;;;;;;;;;;;;;;22.55;53.51;100592.59;4914494;29;2380;-69
2023/09/20 02:00:54;;;;;;;;;;;;;;;22.54;53.46;100591.88;4913141;29;6403;-70
2023/09/20 02:03:21;;;;;;;;;;;;;;;22.55;53.17;100598.38;4914560;29;2194;-70
2023/09/20 02:05:47;;;;;;;;;;;;;;;22.54;53.49;100591.88;4915779;29;2278;-71
2023/09/20 02:08:16;;;;;;;;;;;;;;;22.54;53.56;100596.88;4914123;29;2209;-71
2023/09/20 02:10:44;;;;;;;;;;;;;;;22.53;53.22;100590.38;4915407;29;2522;-70
2023/09/20 02:13:11;;;;;;;;;;;;;;;22.53;53.39;100590.38;4915785;29;2142;-70
2023/09/20 02:15:40;;;;;;;;;;;;;;;22.54;53.48;100591.09;4913764;29;2244;-71
2023/09/20 02:18:08;;;;;;;;;;;;;;;22.53;53.48;100596.16;4916856;29;2288;-71
2023/09/20 02:20:37;;;;;;;;;;;;;;;22.53;53.30;100596.16;4913387;29;2619;-71
2023/09/20 02:23:05;;;;;;;;;;;;;;;22.52;53.68;100583.13;4916893;29;2273;-71
2023/09/20 02:25:32;;;;;;;;;;;;;;;22.51;53.61;100593.19;4914181;29;2242;-70
2023/09/20 02:27:58;;;;;;;;;;;;;;;22.52;53.57;100582.41;4915001;29;2559;-71
2023/09/20 02:30:28;;;;;;;;;;;;;;;22.51;53.54;100581.66;4914087;29;6179;-71
2023/09/20 02:32:57;;;;;;;;;;;;;;;22.51;53.27;100578.75;4915646;29;2263;-71
2023/09/20 02:35:27;;;;;;;;;;;;;;;22.51;53.64;100593.19;4913654;29;2344;-70
2023/09/20 02:37:54;;;;;;;;;;;;;;;22.51;53.54;100575.88;4912188;29;2467;-70
2023/09/20 02:40:23;;;;;;;;;;;;;;;22.51;53.50;100580.91;4914531;29;2434;-71
2023/09/20 02:42:54;;;;;;;;;;;;;;;22.51;53.62;100578.75;4912579;29;2433;-71
2023/09/20 02:45:23;;;;;;;;;;;;;;;22.50;53.32;100580.19;4917508;29;2185;-70
2023/09/20 02:47:50;;;;;;;;;;;;;;;22.49;53.55;100570.03;4913376;29;2198;-70
2023/09/20 02:50:22;;;;;;;;;;;;;;;22.50;53.49;100579.47;4913638;29;2444;-70
2023/09/20 02:52:49;;;;;;;;;;;;;;;22.49;53.70;100578.69;4899597;29;2373;-70
2023/09/20 02:55:17;;;;;;;;;;;;;;;22.49;53.68;100578.69;4914480;29;2370;-70
2023/09/20 02:57:44;;;;;;;;;;;;;;;22.49;53.43;100572.94;4915682;29;2261;-70
2023/09/20 03:00:16;;;;;;;;;;;;;;;22.49;53.71;100566.41;4900462;29;6425;-71
2023/09/20 03:02:47;;;;;;;;;;;;;;;22.49;53.44;100572.94;4912448;29;2514;-71
2023/09/20 03:05:15;;;;;;;;;;;;;;;22.50;53.45;100573.69;4915090;29;2125;-70
2023/09/20 03:07:43;;;;;;;;;;;;;;;22.49;53.45;100577.97;4915357;29;2200;-70
2023/09/20 03:10:12;;;;;;;;;;;;;;;22.48;53.35;100571.47;4912538;29;2240;-70
2023/09/20 03:12:39;;;;;;;;;;;;;;;22.49;53.45;100567.16;4915050;29;2332;-70
2023/09/20 03:15:09;;;;;;;;;;;;;;;22.49;53.68;100566.41;4911448;29;2487;-70
2023/09/20 03:17:37;;;;;;;;;;;;;;;22.47;53.45;100570.00;4915586;29;2382;-70
2023/09/20 03:20:10;;;;;;;;;;;;;;;22.47;53.70;100558.47;4899614;29;2262;-70
2023/09/20 03:22:39;;;;;;;;;;;;;;;22.46;53.68;100562.00;4913850;29;2651;-71
2023/09/20 03:25:09;;;;;;;;;;;;;;;22.47;53.67;100558.47;4913465;29;2335;-70
2023/09/20 03:27:40;;;;;;;;;;;;;;;22.46;53.75;100562.72;4913546;29;2379;-71
2023/09/20 03:30:07;;;;;;;;;;;;;;;22.47;53.39;100564.22;4913813;29;6451;-70
2023/09/20 03:32:33;;;;;;;;;;;;;;;22.49;53.44;100570.03;4915801;29;2542;-70
2023/09/20 03:35:00;;;;;;;;;;;;;;;22.47;53.37;100564.22;4911710;29;2223;-70
2023/09/20 03:37:28;;;;;;;;;;;;;;;22.49;53.39;100560.66;4914950;29;2305;-71
2023/09/20 03:39:55;;;;;;;;;;;;;;;22.49;53.44;100563.53;4910755;29;2241;-70
2023/09/20 03:42:21;;;;;;;;;;;;;;;22.48;53.46;100570.72;4913149;29;2374;-70
2023/09/20 03:44:48;;;;;;;;;;;;;;;22.48;53.48;100564.97;4914410;29;2249;-71
2023/09/20 03:47:16;;;;;;;;;;;;;;;22.48;53.60;100564.97;4912499;29;2249;-71
2023/09/20 03:49:43;;;;;;;;;;;;;;;22.48;53.77;100557.03;4913157;29;2434;-70
2023/09/20 03:52:09;;;;;;;;;;;;;;;22.47;53.68;100563.47;4914423;29;2573;-71
2023/09/20 03:54:36;;;;;;;;;;;;;;;22.46;53.40;100551.19;4913359;29;2207;-70
2023/09/20 03:57:02;;;;;;;;;;;;;;;22.46;53.44;100562.72;4898167;29;2385;-70
2023/09/20 03:59:31;;;;;;;;;;;;;;;22.46;53.28;100562.72;4899132;29;2366;-70
2023/09/20 04:01:57;;;;;;;;;;;;;;;22.47;53.41;100558.47;4911113;29;6137;-70
2023/09/20 04:04:24;;;;;;;;;;;;;;;22.46;53.32;100567.78;4913489;29;2452;-70
2023/09/20 04:06:50;;;;;;;;;;;;;;;22.46;53.25;100562.00;4898425;29;2200;-70
2023/09/20 04:09:20;;;;;;;;;;;;;;;22.46;53.31;100559.84;4912757;29;2187;-71
2023/09/20 04:11:47;;;;;;;;;;;;;;;22.46;53.19;100562.72;4913956;29;2599;-70
2023/09/20 04:14:14;;;;;;;;;;;;;;;22.46;53.63;100565.63;4912356;29;2209;-71
2023/09/20 04:16:40;;;;;;;;;;;;;;;22.46;53.63;100562.72;4914738;29;2302;-71
2023/09/20 04:19:07;;;;;;;;;;;;;;;22.46;53.70;100556.97;4912600;29;2205;-70
2023/09/20 04:21:33;;;;;;;;;;;;;;;22.45;53.62;100561.28;4911780;29;2503;-70
2023/09/20 04:24:00;;;;;;;;;;;;;;;22.45;53.54;100569.94;4911338;29;2405;-70
2023/09/20 04:26:26;;;;;;;;;;;;;;;22.42;53.49;100565.47;4912273;29;2354;-71
2023/09/20 04:28:55;;;;;;;;;;;;;;;22.45;53.28;100572.06;4912139;29;2332;-71
2023/09/20 04:31:22;;;;;;;;;;;;;;;22.42;53.64;100568.38;4902903;29;6362;-72
2023/09/20 04:33:49;;;;;;;;;;;;;;;22.38;53.83;100574.03;4910966;29;2439;-73
2023/09/20 04:36:15;;;;;;;;;;;;;;;22.47;53.92;100575.78;4911940;29;2498;-73
2023/09/20 04:38:42;;;;;;;;;;;;;;;22.43;54.03;100581.41;4919582;29;2040;-72
2023/09/20 04:41:13;;;;;;;;;;;;;;;22.42;53.99;100579.19;4919260;29;2241;-73
2023/09/20 04:43:40;;;;;;;;;;;;;;;22.41;53.72;100587.09;4916575;29;2219;-73
2023/09/20 04:46:06;;;;;;;;;;;;;;;22.40;53.76;100585.59;4917527;29;2241;-72
2023/09/20 04:48:33;;;;;;;;;;;;;;;22.41;53.87;100589.25;4917179;29;2167;-73
2023/09/20 04:51:01;;;;;;;;;;;;;;;22.40;53.71;100594.25;4916752;29;1996;-72
2023/09/20 04:53:27;;;;;;;;;;;;;;;22.41;54.04;100584.22;4919329;29;2208;-72
2023/09/20 04:55:56;;;;;;;;;;;;;;;22.40;53.96;100594.25;4916370;29;2368;-73
2023/09/20 04:58:23;;;;;;;;;;;;;;;22.41;54.03;100595.03;4916730;29;2244;-73
2023/09/20 05:00:50;;;;;;;;;;;;;;;22.40;53.97;100594.25;4917311;29;6399;-72
2023/09/20 05:03:17;;;;;;;;;;;;;;;22.40;54.06;100597.16;4918473;29;2095;-73
2023/09/20 05:05:45;;;;;;;;;;;;;;;22.41;53.71;100595.75;4917665;29;2237;-72
2023/09/20 05:08:15;;;;;;;;;;;;;;;22.40;54.17;100594.25;4902638;29;2395;-73
2023/09/20 05:10:43;;;;;;;;;;;;;;;22.40;54.12;100594.25;4918408;29;2232;-72
2023/09/20 05:13:09;;;;;;;;;;;;;;;22.39;53.73;100592.78;4917286;29;1946;-72
2023/09/20 05:15:36;;;;;;;;;;;;;;;22.38;53.88;100592.06;4906295;29;2202;-73
2023/09/20 05:18:07;;;;;;;;;;;;;;;22.38;54.10;100589.19;4915778;29;2212;-72
2023/09/20 05:20:35;;;;;;;;;;;;;;;22.39;53.95;100592.78;4915479;29;2130;-72
2023/09/20 05:23:05;;;;;;;;;;;;;;;22.38;53.91;100594.22;4915880;29;2147;-72
2023/09/20 05:25:33;;;;;;;;;;;;;;;22.38;53.79;100602.88;4917914;29;2175;-72
2023/09/20 05:28:00;;;;;;;;;;;;;;;22.39;53.86;100598.56;4915496;29;2097;-72
2023/09/20 05:30:26;;;;;;;;;;;;;;;22.38;53.92;100602.88;4916320;29;6226;-73
2023/09/20 05:32:53;;;;;;;;;;;;;;;22.38;54.12;100602.88;4916959;29;2412;-72
2023/09/20 05:35:19;;;;;;;;;;;;;;;22.37;54.10;100605.00;4916527;29;2179;-73
2023/09/20 05:37:46;;;;;;;;;;;;;;;22.38;53.99;100602.88;4917101;29;2256;-72
2023/09/20 05:40:19;;;;;;;;;;;;;;;22.37;53.90;100607.88;4916912;29;2384;-72
2023/09/20 05:42:46;;;;;;;;;;;;;;;22.38;54.29;100608.63;4918199;29;2214;-73
2023/09/20 05:45:12;;;;;;;;;;;;;;;22.37;53.99;100613.66;4916140;29;2174;-72
2023/09/20 05:47:40;;;;;;;;;;;;;;;22.37;53.91;100613.66;4917930;29;1927;-73
2023/09/20 05:50:14;;;;;;;;;;;;;;;22.38;53.90;100620.19;4915216;29;2219;-73
2023/09/20 05:52:43;;;;;;;;;;;;;;;22.37;54.08;100627.34;4917276;29;2115;-72
2023/09/20 05:55:13;;;;;;;;;;;;;;;22.38;54.05;100620.19;4918447;29;2196;-73
2023/09/20 05:57:42;;;;;;;;;;;;;;;22.36;53.63;100623.72;4916715;29;2241;-73
2023/09/20 06:00:18;;;;;;;;;;;;;;;22.33;53.56;100618.53;4915689;29;6264;-72
2023/09/20 06:02:44;;;;;;;;;;;;;;;22.31;53.57;100624.25;4916907;29;2126;-73
2023/09/20 06:05:11;;;;;;;;;;;;;;;22.29;53.57;100629.97;4916501;29;2223;-73
2023/09/20 06:07:40;;;;;;;;;;;;;;;22.29;53.33;100618.44;4915660;29;2237;-72
2023/09/20 06:10:07;;;;;;;;;;;;;;;22.29;52.96;100629.97;4917988;29;2168;-72
2023/09/20 06:12:34;;;;;;;;;;;;;;;22.27;53.07;100627.75;4917075;29;2238;-72
2023/09/20 06:15:00;;;;;;;;;;;;;;;22.30;53.13;100629.28;4916752;29;2037;-72
2023/09/20 06:17:29;;;;;;;;;;;;;;;22.31;52.87;100635.78;4914094;29;2230;-73
2023/09/20 06:19:59;;;;;;;;;;;;;;;22.30;53.12;100628.53;4917078;29;2222;-73
2023/09/20 06:22:31;;;;;;;;;;;;;;;22.28;52.92;100628.47;4902255;29;2450;-72
2023/09/20 06:24:58;;;;;;;;;;;;;;;22.28;52.92;100637.13;4915209;29;2123;-72
2023/09/20 06:27:25;;;;;;;;;;;;;;;22.26;53.23;100634.16;4915255;29;2154;-72
2023/09/20 06:29:51;;;;;;;;;;;;;;;22.25;52.98;100632.69;4913175;29;2660;-73
2023/09/20 06:32:18;;;;;;;;;;;;;;;22.23;53.17;100638.38;4914708;29;6325;-71
2023/09/20 06:34:44;;;;;;;;;;;;;;;22.29;52.65;100635.72;4901257;29;2271;-69
2023/09/20 06:37:24;;;;;;;;;;;;;;;22.29;52.68;100636.47;4913651;29;2201;-69
2023/09/20 06:39:51;;;;;;;;;;;;;;;22.30;52.66;100634.31;4913866;29;2259;-69
2023/09/20 06:42:18;;;;;;;;;;;;;;;22.26;52.90;100639.94;4917022;29;2218;-69
2023/09/20 06:44:44;;;;;;;;;;;;;;;22.29;53.05;100641.50;4916843;29;2454;-71
2023/09/20 06:47:11;;;;;;;;;;;;;;;22.29;52.76;100641.50;4916590;29;2557;-69
2023/09/20 06:49:38;;;;;;;;;;;;;;;22.29;52.55;100641.50;4917841;29;1815;-69
2023/09/20 06:52:05;;;;;;;;;;;;;;;22.30;52.71;100643.69;4917419;29;1605;-69
2023/09/20 06:54:33;;;;;;;;;;;;;;;22.29;52.70;100641.50;4917455;29;1669;-69
2023/09/20 06:57:03;;;;;;;;;;;;;;;22.29;52.48;100648.00;4917002;29;1624;-69
2023/09/20 06:59:32;;;;;;;;;;;;;;;22.29;52.36;100642.22;4906287;29;1622;-69
2023/09/20 07:01:59;;;;;;;;;;;;;;;22.28;52.41;100640.75;4916374;29;6308;-69
2023/09/20 07:04:25;;;;;;;;;;;;;;;22.28;52.30;100645.78;4917817;29;1865;-69
2023/09/20 07:06:55;;;;;;;;;;;;;;;22.28;52.17;100651.53;4917184;29;1968;-69
2023/09/20 07:09:22;;;;;;;;;;;;;;;22.28;52.24;100651.53;4910413;29;2415;-70
2023/09/20 07:11:50;;;;;;;;;;;;;;;22.26;52.59;100654.34;4914276;29;2249;-69
2023/09/20 07:14:20;;;;;;;;;;;;;;;22.40;52.38;100651.22;4916215;29;2196;-73
2023/09/20 07:16:48;;;;;;;;;;;;;;;22.42;52.11;100666.47;4918506;29;1565;-76
2023/09/20 07:19:17;;;;;;;;;;;;;;;22.45;52.25;100652.84;4913587;29;2158;-73
2023/09/20 07:21:44;;;;;;;;;;;;;;;22.55;51.83;100658.97;4917448;29;1740;-76
2023/09/20 07:24:12;;;;;;;;;;;;;;;22.48;51.78;100658.03;4914215;29;2489;-72
2023/09/20 07:26:39;;;;;;;;;;;;;;;22.16;52.72;100663.38;4915273;29;2115;-72
2023/09/20 07:29:05;;;;;;;;;;;;;;;22.02;53.63;100659.97;4914658;29;2145;-72
2023/09/20 07:31:36;;;;;;;;;;;;;;;22.12;53.28;100652.41;4914789;29;6226;-70
2023/09/20 07:34:16;;;;;;;;;;;;;;;21.99;53.76;100649.75;4913163;29;2193;-71
2023/09/20 07:36:49;;;;;;;;;;;;;;;22.04;53.57;100652.13;4913717;29;2282;-70
2023/09/20 07:39:20;;;;;;;;;;;;;;;22.06;53.65;100655.09;4913247;29;2506;-70
2023/09/20 07:41:46;;;;;;;;;;;;;;;22.05;53.38;100659.38;4912652;29;2284;-70
2023/09/20 07:44:13;;;;;;;;;;;;;;;21.99;53.89;100662.03;4914593;29;2359;-70
2023/09/20 07:46:40;;;;;;;;;;;;;;;21.99;53.94;100662.03;4915568;29;2124;-70
2023/09/20 07:49:09;;;;;;;;;;;;;;;22.01;54.04;100664.97;4914605;29;2198;-70
2023/09/20 07:51:39;;;;;;;;;;;;;;;22.00;53.98;100657.75;4916097;29;2130;-70
2023/09/20 07:54:08;;;;;;;;;;;;;;;22.02;53.88;100665.75;4915905;29;2074;-71
2023/09/20 07:56:35;;;;;;;;;;;;;;;21.92;53.78;100668.97;4915831;29;1835;-70
2023/09/20 07:59:03;;;;;;;;;;;;;;;22.03;53.75;100662.16;4915489;29;2067;-70
2023/09/20 08:01:30;;;;;;;;;;;;;;;22.04;53.52;100662.94;4912581;29;6363;-70
2023/09/20 08:04:00;;;;;;;;;;;;;;;21.94;53.89;100666.16;4915333;29;2090;-70
2023/09/20 08:06:28;;;;;;;;;;;;;;;22.04;53.72;100668.69;4914649;29;2208;-70
2023/09/20 08:08:56;;;;;;;;;;;;;;;21.95;54.03;100679.19;4914886;29;2192;-70
2023/09/20 08:11:22;;;;;;;;;;;;;;;22.02;54.36;100671.50;4914806;29;1597;-70
2023/09/20 08:13:52;;;;;;;;;;;;;;;22.03;54.12;100676.59;4915198;29;2187;-71
2023/09/20 08:16:19;;;;;;;;;;;;;;;22.09;54.18;100676.09;4916047;29;1665;-70
2023/09/20 08:19:16;;;;;;;;;;;;;;;22.11;54.14;100679.06;4900077;29;2275;-71
2023/09/20 08:21:43;;;;;;;;;;;;;;;22.21;53.45;100664.25;4915858;29;2175;-71
2023/09/20 09:00:07;;;;;;;;;;;;;;;22.32;53.16;100660.34;4916147;29;2318;-72
2023/09/20 09:02:33;;;;;;;;;;;;;;;22.33;53.30;100658.94;4913715;29;6027;-71
2023/09/20 09:05:00;;;;;;;;;;;;;;;22.35;53.19;100656.84;4916062;29;1795;-72
2023/09/20 09:07:27;;;;;;;;;;;;;;;22.36;53.48;100657.59;4915771;29;1986;-72
2023/09/20 09:09:53;;;;;;;;;;;;;;;22.36;53.71;100658.34;4914179;29;1587;-72
2023/09/20 09:12:20;;;;;;;;;;;;;;;22.35;53.65;100662.63;4915242;29;1700;-72
2023/09/20 09:14:46;;;;;;;;;;;;;;;22.34;53.35;100655.38;4916855;29;1716;-72
2023/09/20 09:17:14;;;;;;;;;;;;;;;22.35;53.64;100661.88;4915046;29;1585;-72
2023/09/20 09:19:40;;;;;;;;;;;;;;;22.34;53.40;100654.66;4914912;29;1847;-72
2023/09/20 09:22:07;;;;;;;;;;;;;;;22.35;53.55;100659.00;4915008;29;1632;-72
2023/09/20 09:25:00;;;;;;;;;;;;;;;22.36;53.53;100663.38;4915233;29;2648;-72
2023/09/20 09:27:26;;;;;;;;;;;;;;;22.35;53.43;100661.88;4915939;29;2138;-72
2023/09/20 09:29:52;;;;;;;;;;;;;;;22.30;53.38;100663.88;4917860;29;2118;-72
2023/09/20 09:32:19;;;;;;;;;;;;;;;22.34;53.42;100660.41;4917176;29;6290;-71
2023/09/20 09:34:46;;;;;;;;;;;;;;;22.32;53.58;100657.47;4919946;29;1666;-73
2023/09/20 09:37:14;;;;;;;;;;;;;;;22.34;53.50;100661.16;4903951;29;2180;-71
2023/09/20 09:39:42;;;;;;;;;;;;;;;22.38;53.30;100666.34;4918305;29;1652;-72
2023/09/20 09:42:09;;;;;;;;;;;;;;;22.35;53.29;100659.00;4915543;29;1823;-71
2023/09/20 09:44:55;;;;;;;;;;;;;;;22.38;53.52;100654.78;4917228;29;2047;-71
2023/09/20 09:47:22;;;;;;;;;;;;;;;22.36;53.63;100657.59;4917800;29;1906;-72
2023/09/20 09:49:48;;;;;;;;;;;;;;;22.38;53.45;100658.41;4919412;29;1758;-71
2023/09/20 09:52:23;;;;;;;;;;;;;;;22.36;53.64;100649.69;4917008;29;1831;-72
2023/09/20 09:54:50;;;;;;;;;;;;;;;22.40;53.22;100646.19;4918074;29;1792;-72
2023/09/20 09:57:18;;;;;;;;;;;;;;;22.40;53.70;100651.97;4916620;29;1930;-73
2023/09/20 09:59:48;;;;;;;;;;;;;;;22.41;53.82;100647.69;4918061;29;1695;-72
2023/09/20 10:02:18;;;;;;;;;;;;;;;22.44;54.21;100651.38;4917118;29;6249;-72
2023/09/20 10:04:55;;;;;;;;;;;;;;;22.39;54.31;100650.50;4919012;29;1608;-72
2023/09/20 10:07:22;;;;;;;;;;;;;;;22.45;54.07;100644.19;4902050;29;1892;-72
2023/09/20 10:09:52;;;;;;;;;;;;;;;22.39;54.67;100644.72;4917287;29;1898;-72
2023/09/20 10:12:20;;;;;;;;;;;;;;;22.43;54.34;100650.63;4918049;29;1775;-72
2023/09/20 10:14:46;;;;;;;;;;;;;;;22.42;54.41;100643.38;4918616;29;1619;-72
2023/09/20 10:17:17;;;;;;;;;;;;;;;22.44;54.41;100643.44;4900815;29;1665;-71
2023/09/20 10:19:43;;;;;;;;;;;;;;;22.43;54.60;100623.94;4919113;29;1806;-71
2023/09/20 10:22:10;;;;;;;;;;;;;;;22.45;54.64;100626.88;4917685;29;1596;-71
2023/09/20 10:24:46;;;;;;;;;;;;;;;22.45;54.73;100630.50;4917714;29;1894;-71
2023/09/20 10:27:16;;;;;;;;;;;;;;;22.45;54.67;100624.75;4917711;29;1911;-71
2023/09/20 10:29:46;;;;;;;;;;;;;;;22.45;54.72;100624.75;4918123;29;1611;-72
2023/09/20 10:32:13;;;;;;;;;;;;;;;22.47;54.75;100621.94;4908014;29;7605;-72
2023/09/20 10:34:40;;;;;;;;;;;;;;;22.47;54.50;100621.16;4916152;29;1630;-72
2023/09/20 10:37:08;;;;;;;;;;;;;;;22.45;54.70;100618.97;4917896;29;1607;-72
2023/09/20 10:39:34;;;;;;;;;;;;;;;22.48;54.64;100622.66;4918618;29;1624;-71
2023/09/20 10:42:12;;;;;;;;;;;;;;;22.50;54.80;100614.06;4917954;29;1981;-72
2023/09/20 10:44:40;;;;;;;;;;;;;;;22.50;54.79;100606.16;4918155;29;1795;-71
2023/09/20 10:47:11;;;;;;;;;;;;;;;22.52;54.81;100606.22;4917028;29;1972;-71
2023/09/20 10:49:50;;;;;;;;;;;;;;;22.50;55.12;100603.28;4918269;29;1683;-71
2023/09/20 10:52:32;;;;;;;;;;;;;;;22.50;54.79;100602.53;4916208;29;1587;-70
2023/09/20 10:55:18;;;;;;;;;;;;;;;22.51;55.03;100598.97;4916875;29;1818;-71
2023/09/20 10:57:45;;;;;;;;;;;;;;;22.51;54.83;100598.97;4916647;29;1628;-72
2023/09/20 11:00:14;;;;;;;;;;;;;;;22.50;54.82;100591.72;4901285;29;6199;-71
2023/09/20 11:02:42;;;;;;;;;;;;;;;22.53;54.72;100584.59;4916524;29;1799;-72
2023/09/20 11:05:11;;;;;;;;;;;;;;;22.57;54.09;100593.41;4916881;29;1755;-72
2023/09/20 11:07:41;;;;;;;;;;;;;;;22.58;54.42;100591.97;4917632;29;1910;-72
2023/09/20 11:10:09;;;;;;;;;;;;;;;22.57;54.31;100590.53;4916969;29;2026;-72
2023/09/20 11:12:36;;;;;;;;;;;;;;;22.54;54.50;100591.88;4916343;29;1819;-71
2023/09/20 11:15:05;;;;;;;;;;;;;;;22.54;54.14;100588.97;4918415;29;1635;-73
2023/09/20 11:17:32;;;;;;;;;;;;;;;22.54;54.15;100591.09;4916684;29;1799;-72
2023/09/20 11:19:58;;;;;;;;;;;;;;;22.52;54.10;100577.38;4915149;29;1663;-71
2023/09/20 11:22:25;;;;;;;;;;;;;;;22.54;54.28;100591.88;4915902;29;1787;-73
2023/09/20 11:24:52;;;;;;;;;;;;;;;22.57;53.78;100578.25;4900686;29;1602;-74
2023/09/20 11:27:18;;;;;;;;;;;;;;;22.58;54.15;100576.81;4905951;29;1927;-73
2023/09/20 11:29:45;;;;;;;;;;;;;;;22.57;53.86;100584.75;4916064;29;1819;-73
2023/09/20 11:32:11;;;;;;;;;;;;;;;22.54;54.12;100580.31;4900877;29;6302;-74
2023/09/20 11:34:44;;;;;;;;;;;;;;;22.58;53.88;100580.44;4918366;29;1561;-76
2023/09/20 11:37:13;;;;;;;;;;;;;;;22.63;54.07;100580.56;4915863;29;1708;-72
2023/09/20 11:39:43;;;;;;;;;;;;;;;22.69;53.94;100580.78;4916904;29;1597;-74
2023/09/20 11:42:10;;;;;;;;;;;;;;;22.68;54.21;100577.16;4916534;29;1740;-74
2023/09/20 11:44:37;;;;;;;;;;;;;;;22.72;54.14;100580.19;4914510;29;1769;-73
2023/09/20 11:47:03;;;;;;;;;;;;;;;22.76;54.19;100576.69;4915195;29;1915;-75
2023/09/20 11:49:30;;;;;;;;;;;;;;;22.79;54.08;100575.31;4916385;29;1853;-75
2023/09/20 11:51:59;;;;;;;;;;;;;;;22.79;54.20;100572.44;4916146;29;1675;-73
2023/09/20 11:54:28;;;;;;;;;;;;;;;22.81;54.16;100572.50;4916147;29;1755;-73
2023/09/20 11:56:57;;;;;;;;;;;;;;;22.77;54.04;100575.28;4916191;29;1620;-73
2023/09/20 11:59:23;;;;;;;;;;;;;;;23.05;53.64;100575.47;4918036;29;1771;-72
2023/09/20 12:01:49;;;;;;;;;;;;;;;23.12;53.19;100568.44;4914783;29;6740;-71
2023/09/20 12:04:17;;;;;;;;;;;;;;;23.00;53.28;100574.59;4900973;29;1847;-75
2023/09/20 12:06:45;;;;;;;;;;;;;;;22.90;53.78;100567.72;4915547;29;1915;-75
2023/09/20 12:09:13;;;;;;;;;;;;;;;22.90;53.83;100567.72;4914624;29;1890;-75
2023/09/20 12:11:40;;;;;;;;;;;;;;;22.82;53.78;100574.00;4914013;29;1581;-75
2023/09/20 12:14:13;;;;;;;;;;;;;;;22.81;53.47;100572.50;4915940;29;1698;-75
2023/09/20 12:16:39;;;;;;;;;;;;;;;22.86;53.64;100568.34;4914870;29;1585;-75
2023/09/20 12:19:07;;;;;;;;;;;;;;;22.86;53.59;100574.13;4917532;29;1635;-76
2023/09/20 12:21:33;;;;;;;;;;;;;;;22.83;53.77;100558.13;4917694;29;1530;-75
2023/09/20 12:23:59;;;;;;;;;;;;;;;22.84;53.65;100550.97;4917496;29;1569;-75
2023/09/20 12:26:26;;;;;;;;;;;;;;;22.86;53.42;100545.25;4916096;29;1907;-75
2023/09/20 12:28:52;;;;;;;;;;;;;;;22.87;53.55;100537.31;4916925;29;1811;-76
2023/09/20 12:31:23;;;;;;;;;;;;;;;22.85;53.25;100538.00;4916272;29;6178;-76
2023/09/20 12:33:50;;;;;;;;;;;;;;;22.87;53.72;100540.94;4917573;29;1589;-74
2023/09/20 12:36:17;;;;;;;;;;;;;;;22.88;53.38;100530.88;4914651;29;1677;-74
2023/09/20 12:38:44;;;;;;;;;;;;;;;22.89;53.72;100538.13;4917338;29;2111;-74
2023/09/20 12:41:11;;;;;;;;;;;;;;;22.91;53.39;100541.06;4918366;29;1614;-73
2023/09/20 12:43:38;;;;;;;;;;;;;;;22.92;53.35;100531.00;4916497;29;1624;-74
2023/09/20 12:46:04;;;;;;;;;;;;;;;22.89;53.61;100526.56;4915154;29;1655;-74
2023/09/20 12:48:32;;;;;;;;;;;;;;;22.90;53.74;100522.25;4916786;29;1938;-75
2023/09/20 12:50:58;;;;;;;;;;;;;;;22.91;53.46;100517.97;4915635;29;1738;-74
2023/09/20 12:53:28;;;;;;;;;;;;;;;22.88;53.69;100513.53;4915076;29;1691;-76
2023/09/20 12:55:55;;;;;;;;;;;;;;;22.92;53.66;100519.44;4916783;29;1724;-75
2023/09/20 12:58:21;;;;;;;;;;;;;;;22.94;53.67;100522.41;4918678;29;1842;-75
2023/09/20 13:00:49;;;;;;;;;;;;;;;22.94;53.85;100518.78;4919126;29;6171;-76
2023/09/20 13:03:16;;;;;;;;;;;;;;;22.89;53.69;100515.03;4920404;29;1516;-78
2023/09/20 13:05:44;;;;;;;;;;;;;;;22.93;54.43;100515.16;4917995;29;1729;-83
2023/09/20 13:08:10;;;;;;;;;;;;;;;22.94;54.43;100510.84;4920505;29;1907;-81
2023/09/20 13:10:37;;;;;;;;;;;;;;;22.96;53.85;100502.25;4919602;29;1705;-79
2023/09/20 13:13:08;;;;;;;;;;;;;;;22.95;54.07;100495.00;4919007;29;1799;-81
2023/09/20 13:15:34;;;;;;;;;;;;;;;22.91;54.26;100500.66;4917137;29;1609;-79
2023/09/20 13:18:01;;;;;;;;;;;;;;;22.92;54.11;100502.13;4912614;29;2118;-79
2023/09/20 13:20:28;;;;;;;;;;;;;;;22.93;53.92;100497.84;4916063;29;2250;-79
2023/09/20 13:22:56;;;;;;;;;;;;;;;22.92;53.93;100495.63;4916236;29;2478;-79
2023/09/20 13:25:25;;;;;;;;;;;;;;;22.95;54.22;100495.00;4913483;29;2496;-79
2023/09/20 13:27:53;;;;;;;;;;;;;;;22.99;54.17;100500.91;4917008;29;2190;-80